sensor_id;sensor_type;location;lat;lon;timestamp;P1;durP1;ratioP1;P2;durP2;ratioP2
52015;SDS011;38032;53.326;6.472;2024-03-29T00:00:35;3.67;;;1.48;;
52015;SDS011;38032;53.326;6.472;2024-03-29T00:03:01;4.88;;;1.65;;
52015;SDS011;38032;53.326;6.472;2024-03-29T00:05:27;4.28;;;1.50;;
52015;SDS011;38032;53.326;6.472;2024-03-29T00:07:52;4.40;;;1.58;;
52015;SDS011;38032;53.326;6.472;2024-03-29T00:10:18;5.03;;;1.73;;
52015;SDS011;38032;53.326;6.472;2024-03-29T00:12:44;2.53;;;1.30;;
52015;SDS011;38032;53.326;6.472;2024-03-29T00:15:10;4.68;;;1.83;;
52015;SDS011;38032;53.326;6.472;2024-03-29T00:17:36;3.72;;;1.63;;
52015;SDS011;38032;53.326;6.472;2024-03-29T00:20:02;3.50;;;1.60;;
52015;SDS011;38032;53.326;6.472;2024-03-29T00:22:29;5.47;;;1.60;;
52015;SDS011;38032;53.326;6.472;2024-03-29T00:24:55;5.78;;;1.70;;
52015;SDS011;38032;53.326;6.472;2024-03-29T00:27:21;4.75;;;1.50;;
52015;SDS011;38032;53.326;6.472;2024-03-29T00:29:50;4.82;;;1.60;;
52015;SDS011;38032;53.326;6.472;2024-03-29T00:32:19;3.42;;;1.40;;
52015;SDS011;38032;53.326;6.472;2024-03-29T00:34:48;4.28;;;1.65;;
52015;SDS011;38032;53.326;6.472;2024-03-29T00:37:15;3.67;;;1.40;;
52015;SDS011;38032;53.326;6.472;2024-03-29T00:39:41;5.20;;;1.48;;
52015;SDS011;38032;53.326;6.472;2024-03-29T00:42:07;5.18;;;1.60;;
52015;SDS011;38032;53.326;6.472;2024-03-29T00:44:35;6.03;;;1.50;;
52015;SDS011;38032;53.326;6.472;2024-03-29T00:47:03;4.95;;;1.30;;
52015;SDS011;38032;53.326;6.472;2024-03-29T00:49:29;4.68;;;1.50;;
52015;SDS011;38032;53.326;6.472;2024-03-29T00:51:55;8.07;;;1.48;;
52015;SDS011;38032;53.326;6.472;2024-03-29T00:54:21;4.07;;;1.48;;
52015;SDS011;38032;53.326;6.472;2024-03-29T00:56:49;5.30;;;1.60;;
52015;SDS011;38032;53.326;6.472;2024-03-29T00:59:15;4.55;;;1.45;;
52015;SDS011;38032;53.326;6.472;2024-03-29T01:01:41;4.30;;;1.52;;
52015;SDS011;38032;53.326;6.472;2024-03-29T01:04:07;4.43;;;1.73;;
52015;SDS011;38032;53.326;6.472;2024-03-29T01:06:34;4.30;;;1.40;;
52015;SDS011;38032;53.326;6.472;2024-03-29T01:09:00;7.40;;;1.90;;
52015;SDS011;38032;53.326;6.472;2024-03-29T01:11:26;5.80;;;1.55;;
52015;SDS011;38032;53.326;6.472;2024-03-29T01:13:52;4.28;;;1.70;;
52015;SDS011;38032;53.326;6.472;2024-03-29T01:16:18;3.72;;;1.83;;
52015;SDS011;38032;53.326;6.472;2024-03-29T01:18:44;5.03;;;1.70;;
52015;SDS011;38032;53.326;6.472;2024-03-29T01:21:11;3.20;;;1.40;;
52015;SDS011;38032;53.326;6.472;2024-03-29T01:23:38;4.32;;;1.88;;
52015;SDS011;38032;53.326;6.472;2024-03-29T01:26:04;3.33;;;1.60;;
52015;SDS011;38032;53.326;6.472;2024-03-29T01:28:31;7.45;;;1.70;;
52015;SDS011;38032;53.326;6.472;2024-03-29T01:30:57;3.70;;;1.70;;
52015;SDS011;38032;53.326;6.472;2024-03-29T01:33:24;4.32;;;1.48;;
52015;SDS011;38032;53.326;6.472;2024-03-29T01:35:51;3.53;;;1.42;;
52015;SDS011;38032;53.326;6.472;2024-03-29T01:38:18;3.70;;;1.30;;
52015;SDS011;38032;53.326;6.472;2024-03-29T01:40:44;5.55;;;1.90;;
52015;SDS011;38032;53.326;6.472;2024-03-29T01:43:10;5.70;;;1.63;;
52015;SDS011;38032;53.326;6.472;2024-03-29T01:45:36;4.57;;;1.80;;
52015;SDS011;38032;53.326;6.472;2024-03-29T01:48:05;7.80;;;1.65;;
52015;SDS011;38032;53.326;6.472;2024-03-29T01:50:31;2.75;;;1.40;;
52015;SDS011;38032;53.326;6.472;2024-03-29T01:52:59;4.53;;;1.38;;
52015;SDS011;38032;53.326;6.472;2024-03-29T01:55:25;4.28;;;1.70;;
52015;SDS011;38032;53.326;6.472;2024-03-29T01:57:51;9.13;;;2.03;;
52015;SDS011;38032;53.326;6.472;2024-03-29T02:00:18;3.75;;;1.23;;
52015;SDS011;38032;53.326;6.472;2024-03-29T02:02:45;5.90;;;2.05;;
52015;SDS011;38032;53.326;6.472;2024-03-29T02:05:11;5.28;;;1.50;;
52015;SDS011;38032;53.326;6.472;2024-03-29T02:07:37;3.83;;;1.58;;
52015;SDS011;38032;53.326;6.472;2024-03-29T02:10:03;7.30;;;1.60;;
52015;SDS011;38032;53.326;6.472;2024-03-29T02:12:32;3.45;;;1.50;;
52015;SDS011;38032;53.326;6.472;2024-03-29T02:14:58;4.47;;;1.50;;
52015;SDS011;38032;53.326;6.472;2024-03-29T02:17:25;4.18;;;1.55;;
52015;SDS011;38032;53.326;6.472;2024-03-29T02:19:51;3.67;;;1.48;;
52015;SDS011;38032;53.326;6.472;2024-03-29T02:22:16;5.03;;;1.30;;
52015;SDS011;38032;53.326;6.472;2024-03-29T02:24:46;3.47;;;1.60;;
52015;SDS011;38032;53.326;6.472;2024-03-29T02:27:12;6.07;;;1.60;;
52015;SDS011;38032;53.326;6.472;2024-03-29T02:29:38;7.68;;;1.80;;
52015;SDS011;38032;53.326;6.472;2024-03-29T02:32:04;5.65;;;1.65;;
52015;SDS011;38032;53.326;6.472;2024-03-29T02:34:30;6.28;;;1.58;;
52015;SDS011;38032;53.326;6.472;2024-03-29T02:36:56;5.72;;;1.67;;
52015;SDS011;38032;53.326;6.472;2024-03-29T02:39:22;5.03;;;1.55;;
52015;SDS011;38032;53.326;6.472;2024-03-29T02:41:48;4.35;;;1.42;;
52015;SDS011;38032;53.326;6.472;2024-03-29T02:44:14;5.13;;;1.63;;
52015;SDS011;38032;53.326;6.472;2024-03-29T02:46:41;5.80;;;1.52;;
52015;SDS011;38032;53.326;6.472;2024-03-29T02:49:07;5.38;;;1.50;;
52015;SDS011;38032;53.326;6.472;2024-03-29T02:51:34;5.50;;;1.60;;
52015;SDS011;38032;53.326;6.472;2024-03-29T02:54:01;3.20;;;1.23;;
52015;SDS011;38032;53.326;6.472;2024-03-29T02:56:26;3.45;;;1.23;;
52015;SDS011;38032;53.326;6.472;2024-03-29T02:58:53;7.43;;;1.63;;
52015;SDS011;38032;53.326;6.472;2024-03-29T03:01:20;4.93;;;1.55;;
52015;SDS011;38032;53.326;6.472;2024-03-29T03:03:45;4.28;;;1.40;;
52015;SDS011;38032;53.326;6.472;2024-03-29T03:06:11;5.35;;;1.83;;
52015;SDS011;38032;53.326;6.472;2024-03-29T03:08:37;6.32;;;1.30;;
52015;SDS011;38032;53.326;6.472;2024-03-29T03:11:22;5.45;;;1.83;;
52015;SDS011;38032;53.326;6.472;2024-03-29T03:13:47;6.45;;;1.45;;
52015;SDS011;38032;53.326;6.472;2024-03-29T03:16:13;5.78;;;1.50;;
52015;SDS011;38032;53.326;6.472;2024-03-29T03:18:39;2.80;;;1.30;;
52015;SDS011;38032;53.326;6.472;2024-03-29T03:21:05;4.63;;;1.58;;
52015;SDS011;38032;53.326;6.472;2024-03-29T03:23:31;5.43;;;1.40;;
52015;SDS011;38032;53.326;6.472;2024-03-29T03:25:58;7.95;;;1.70;;
52015;SDS011;38032;53.326;6.472;2024-03-29T03:28:25;5.72;;;1.70;;
52015;SDS011;38032;53.326;6.472;2024-03-29T03:30:51;6.07;;;1.50;;
52015;SDS011;38032;53.326;6.472;2024-03-29T03:33:18;4.97;;;1.60;;
52015;SDS011;38032;53.326;6.472;2024-03-29T03:35:44;10.82;;;1.73;;
52015;SDS011;38032;53.326;6.472;2024-03-29T03:38:10;4.35;;;1.40;;
52015;SDS011;38032;53.326;6.472;2024-03-29T03:40:37;5.53;;;1.42;;
52015;SDS011;38032;53.326;6.472;2024-03-29T03:43:03;3.90;;;1.40;;
52015;SDS011;38032;53.326;6.472;2024-03-29T03:45:35;3.35;;;1.40;;
52015;SDS011;38032;53.326;6.472;2024-03-29T03:48:02;4.75;;;1.63;;
52015;SDS011;38032;53.326;6.472;2024-03-29T03:50:29;4.10;;;1.70;;
52015;SDS011;38032;53.326;6.472;2024-03-29T03:52:55;4.35;;;1.25;;
52015;SDS011;38032;53.326;6.472;2024-03-29T03:55:21;4.38;;;1.60;;
52015;SDS011;38032;53.326;6.472;2024-03-29T03:57:47;5.38;;;1.30;;
52015;SDS011;38032;53.326;6.472;2024-03-29T04:00:13;5.03;;;1.65;;
52015;SDS011;38032;53.326;6.472;2024-03-29T04:02:39;8.77;;;2.20;;
52015;SDS011;38032;53.326;6.472;2024-03-29T04:05:06;5.90;;;1.77;;
52015;SDS011;38032;53.326;6.472;2024-03-29T04:07:32;4.57;;;1.60;;
52015;SDS011;38032;53.326;6.472;2024-03-29T04:09:58;3.97;;;1.60;;
52015;SDS011;38032;53.326;6.472;2024-03-29T04:12:24;3.70;;;1.42;;
52015;SDS011;38032;53.326;6.472;2024-03-29T04:14:50;5.45;;;1.60;;
52015;SDS011;38032;53.326;6.472;2024-03-29T04:17:15;4.07;;;1.40;;
52015;SDS011;38032;53.326;6.472;2024-03-29T04:19:41;3.17;;;1.40;;
52015;SDS011;38032;53.326;6.472;2024-03-29T04:22:07;6.25;;;1.77;;
52015;SDS011;38032;53.326;6.472;2024-03-29T04:24:33;3.80;;;1.60;;
52015;SDS011;38032;53.326;6.472;2024-03-29T04:26:59;6.13;;;1.50;;
52015;SDS011;38032;53.326;6.472;2024-03-29T04:29:24;3.65;;;1.40;;
52015;SDS011;38032;53.326;6.472;2024-03-29T04:31:50;3.58;;;1.40;;
52015;SDS011;38032;53.326;6.472;2024-03-29T04:34:16;3.58;;;1.60;;
52015;SDS011;38032;53.326;6.472;2024-03-29T04:36:42;6.40;;;1.50;;
52015;SDS011;38032;53.326;6.472;2024-03-29T04:39:08;3.08;;;1.60;;
52015;SDS011;38032;53.326;6.472;2024-03-29T04:41:34;4.57;;;1.60;;
52015;SDS011;38032;53.326;6.472;2024-03-29T04:44:00;3.75;;;1.70;;
52015;SDS011;38032;53.326;6.472;2024-03-29T04:46:29;6.32;;;1.50;;
52015;SDS011;38032;53.326;6.472;2024-03-29T04:48:56;4.78;;;1.50;;
52015;SDS011;38032;53.326;6.472;2024-03-29T04:51:22;5.25;;;1.48;;
52015;SDS011;38032;53.326;6.472;2024-03-29T04:53:48;4.85;;;1.50;;
52015;SDS011;38032;53.326;6.472;2024-03-29T04:56:14;2.28;;;1.25;;
52015;SDS011;38032;53.326;6.472;2024-03-29T04:58:40;3.40;;;1.58;;
52015;SDS011;38032;53.326;6.472;2024-03-29T05:01:07;4.15;;;1.60;;
52015;SDS011;38032;53.326;6.472;2024-03-29T05:03:33;5.13;;;1.50;;
52015;SDS011;38032;53.326;6.472;2024-03-29T05:05:59;4.57;;;1.60;;
52015;SDS011;38032;53.326;6.472;2024-03-29T05:08:25;2.88;;;1.42;;
52015;SDS011;38032;53.326;6.472;2024-03-29T05:10:50;3.13;;;1.40;;
52015;SDS011;38032;53.326;6.472;2024-03-29T05:13:17;5.03;;;1.90;;
52015;SDS011;38032;53.326;6.472;2024-03-29T05:15:49;4.60;;;1.25;;
52015;SDS011;38032;53.326;6.472;2024-03-29T05:18:15;5.47;;;1.52;;
52015;SDS011;38032;53.326;6.472;2024-03-29T05:20:41;4.03;;;1.25;;
52015;SDS011;38032;53.326;6.472;2024-03-29T05:23:12;3.53;;;1.33;;
52015;SDS011;38032;53.326;6.472;2024-03-29T05:25:39;6.78;;;1.60;;
52015;SDS011;38032;53.326;6.472;2024-03-29T05:28:06;4.85;;;1.50;;
52015;SDS011;38032;53.326;6.472;2024-03-29T05:30:32;4.95;;;1.55;;
52015;SDS011;38032;53.326;6.472;2024-03-29T05:33:01;3.00;;;1.42;;
52015;SDS011;38032;53.326;6.472;2024-03-29T05:35:28;4.57;;;1.48;;
52015;SDS011;38032;53.326;6.472;2024-03-29T05:37:54;5.20;;;1.42;;
52015;SDS011;38032;53.326;6.472;2024-03-29T05:40:20;3.40;;;1.70;;
52015;SDS011;38032;53.326;6.472;2024-03-29T05:42:50;3.67;;;1.27;;
52015;SDS011;38032;53.326;6.472;2024-03-29T05:45:27;2.92;;;1.30;;
52015;SDS011;38032;53.326;6.472;2024-03-29T05:47:54;4.90;;;1.50;;
52015;SDS011;38032;53.326;6.472;2024-03-29T05:50:21;4.20;;;1.73;;
52015;SDS011;38032;53.326;6.472;2024-03-29T05:52:48;2.53;;;1.25;;
52015;SDS011;38032;53.326;6.472;2024-03-29T05:55:14;4.90;;;1.55;;
52015;SDS011;38032;53.326;6.472;2024-03-29T05:57:40;3.05;;;1.55;;
52015;SDS011;38032;53.326;6.472;2024-03-29T06:00:07;3.88;;;1.50;;
52015;SDS011;38032;53.326;6.472;2024-03-29T06:02:35;3.45;;;1.30;;
52015;SDS011;38032;53.326;6.472;2024-03-29T06:05:02;4.40;;;1.75;;
52015;SDS011;38032;53.326;6.472;2024-03-29T06:07:28;4.00;;;1.52;;
52015;SDS011;38032;53.326;6.472;2024-03-29T06:09:55;2.65;;;1.33;;
52015;SDS011;38032;53.326;6.472;2024-03-29T06:12:21;5.90;;;1.40;;
52015;SDS011;38032;53.326;6.472;2024-03-29T06:14:47;2.40;;;1.20;;
52015;SDS011;38032;53.326;6.472;2024-03-29T06:17:31;6.60;;;1.65;;
52015;SDS011;38032;53.326;6.472;2024-03-29T06:19:57;4.00;;;1.25;;
52015;SDS011;38032;53.326;6.472;2024-03-29T06:22:25;3.72;;;1.42;;
52015;SDS011;38032;53.326;6.472;2024-03-29T06:24:55;5.22;;;1.42;;
52015;SDS011;38032;53.326;6.472;2024-03-29T06:27:31;2.15;;;1.23;;
52015;SDS011;38032;53.326;6.472;2024-03-29T06:29:57;3.83;;;1.55;;
52015;SDS011;38032;53.326;6.472;2024-03-29T06:32:23;3.25;;;1.27;;
52015;SDS011;38032;53.326;6.472;2024-03-29T06:34:49;5.05;;;1.65;;
52015;SDS011;38032;53.326;6.472;2024-03-29T06:37:15;3.78;;;1.20;;
52015;SDS011;38032;53.326;6.472;2024-03-29T06:39:42;2.80;;;1.10;;
52015;SDS011;38032;53.326;6.472;2024-03-29T06:42:08;3.85;;;1.38;;
52015;SDS011;38032;53.326;6.472;2024-03-29T06:44:35;6.95;;;1.52;;
52015;SDS011;38032;53.326;6.472;2024-03-29T06:47:02;4.25;;;1.50;;
52015;SDS011;38032;53.326;6.472;2024-03-29T06:49:28;2.90;;;1.33;;
52015;SDS011;38032;53.326;6.472;2024-03-29T06:51:54;3.78;;;1.40;;
52015;SDS011;38032;53.326;6.472;2024-03-29T06:54:23;5.65;;;1.52;;
52015;SDS011;38032;53.326;6.472;2024-03-29T06:56:52;3.63;;;1.20;;
52015;SDS011;38032;53.326;6.472;2024-03-29T06:59:18;2.65;;;1.25;;
52015;SDS011;38032;53.326;6.472;2024-03-29T07:01:44;4.13;;;1.15;;
52015;SDS011;38032;53.326;6.472;2024-03-29T07:04:12;2.40;;;1.10;;
52015;SDS011;38032;53.326;6.472;2024-03-29T07:06:39;2.10;;;1.30;;
52015;SDS011;38032;53.326;6.472;2024-03-29T07:09:07;3.08;;;1.17;;
52015;SDS011;38032;53.326;6.472;2024-03-29T07:11:35;2.13;;;1.15;;
52015;SDS011;38032;53.326;6.472;2024-03-29T07:14:01;2.92;;;1.20;;
52015;SDS011;38032;53.326;6.472;2024-03-29T07:16:27;3.42;;;1.20;;
52015;SDS011;38032;53.326;6.472;2024-03-29T07:18:53;1.92;;;1.00;;
52015;SDS011;38032;53.326;6.472;2024-03-29T07:21:19;2.95;;;1.17;;
52015;SDS011;38032;53.326;6.472;2024-03-29T07:23:45;4.35;;;1.33;;
52015;SDS011;38032;53.326;6.472;2024-03-29T07:26:11;3.17;;;1.20;;
52015;SDS011;38032;53.326;6.472;2024-03-29T07:28:37;2.95;;;1.20;;
52015;SDS011;38032;53.326;6.472;2024-03-29T07:31:08;3.25;;;1.25;;
52015;SDS011;38032;53.326;6.472;2024-03-29T07:33:35;1.77;;;1.00;;
52015;SDS011;38032;53.326;6.472;2024-03-29T07:36:01;2.80;;;1.00;;
52015;SDS011;38032;53.326;6.472;2024-03-29T07:38:29;2.97;;;1.20;;
52015;SDS011;38032;53.326;6.472;2024-03-29T07:40:55;2.22;;;0.90;;
52015;SDS011;38032;53.326;6.472;2024-03-29T07:43:21;2.55;;;1.13;;
52015;SDS011;38032;53.326;6.472;2024-03-29T07:45:48;3.50;;;1.10;;
52015;SDS011;38032;53.326;6.472;2024-03-29T07:48:15;1.38;;;0.90;;
52015;SDS011;38032;53.326;6.472;2024-03-29T07:50:43;1.10;;;0.95;;
52015;SDS011;38032;53.326;6.472;2024-03-29T07:53:10;3.15;;;1.10;;
52015;SDS011;38032;53.326;6.472;2024-03-29T07:55:37;2.15;;;1.10;;
52015;SDS011;38032;53.326;6.472;2024-03-29T07:58:05;1.83;;;0.95;;
52015;SDS011;38032;53.326;6.472;2024-03-29T08:00:31;2.45;;;1.02;;
52015;SDS011;38032;53.326;6.472;2024-03-29T08:02:58;1.73;;;1.10;;
52015;SDS011;38032;53.326;6.472;2024-03-29T08:05:24;2.28;;;1.20;;
52015;SDS011;38032;53.326;6.472;2024-03-29T08:07:50;1.98;;;1.10;;
52015;SDS011;38032;53.326;6.472;2024-03-29T08:10:16;3.08;;;1.00;;
52015;SDS011;38032;53.326;6.472;2024-03-29T08:12:42;2.47;;;1.10;;
52015;SDS011;38032;53.326;6.472;2024-03-29T08:15:08;2.85;;;1.15;;
52015;SDS011;38032;53.326;6.472;2024-03-29T08:17:34;1.88;;;1.20;;
52015;SDS011;38032;53.326;6.472;2024-03-29T08:20:01;4.05;;;1.40;;
52015;SDS011;38032;53.326;6.472;2024-03-29T08:22:27;1.50;;;1.10;;
52015;SDS011;38032;53.326;6.472;2024-03-29T08:24:53;2.20;;;1.20;;
52015;SDS011;38032;53.326;6.472;2024-03-29T08:27:20;2.58;;;1.30;;
52015;SDS011;38032;53.326;6.472;2024-03-29T08:29:46;3.28;;;1.17;;
52015;SDS011;38032;53.326;6.472;2024-03-29T08:32:14;2.83;;;1.27;;
52015;SDS011;38032;53.326;6.472;2024-03-29T08:34:40;5.72;;;1.33;;
52015;SDS011;38032;53.326;6.472;2024-03-29T08:37:06;3.13;;;1.00;;
52015;SDS011;38032;53.326;6.472;2024-03-29T08:39:32;1.75;;;1.20;;
52015;SDS011;38032;53.326;6.472;2024-03-29T08:41:59;1.65;;;1.00;;
52015;SDS011;38032;53.326;6.472;2024-03-29T08:44:30;2.33;;;1.20;;
52015;SDS011;38032;53.326;6.472;2024-03-29T08:46:57;2.10;;;1.00;;
52015;SDS011;38032;53.326;6.472;2024-03-29T08:49:24;2.28;;;1.27;;
52015;SDS011;38032;53.326;6.472;2024-03-29T08:51:50;2.70;;;1.05;;
52015;SDS011;38032;53.326;6.472;2024-03-29T08:54:16;1.77;;;1.08;;
52015;SDS011;38032;53.326;6.472;2024-03-29T08:56:42;2.83;;;1.23;;
52015;SDS011;38032;53.326;6.472;2024-03-29T08:59:08;2.65;;;1.20;;
52015;SDS011;38032;53.326;6.472;2024-03-29T09:01:36;2.67;;;1.27;;
52015;SDS011;38032;53.326;6.472;2024-03-29T09:04:03;2.88;;;1.42;;
52015;SDS011;38032;53.326;6.472;2024-03-29T09:06:32;2.80;;;1.20;;
52015;SDS011;38032;53.326;6.472;2024-03-29T09:08:58;1.67;;;1.17;;
52015;SDS011;38032;53.326;6.472;2024-03-29T09:11:24;3.75;;;1.33;;
52015;SDS011;38032;53.326;6.472;2024-03-29T09:13:50;2.10;;;1.02;;
52015;SDS011;38032;53.326;6.472;2024-03-29T09:16:16;1.45;;;1.00;;
52015;SDS011;38032;53.326;6.472;2024-03-29T09:18:42;1.60;;;1.10;;
52015;SDS011;38032;53.326;6.472;2024-03-29T09:21:08;2.78;;;1.27;;
52015;SDS011;38032;53.326;6.472;2024-03-29T09:23:36;2.72;;;1.30;;
52015;SDS011;38032;53.326;6.472;2024-03-29T09:26:06;2.17;;;1.08;;
52015;SDS011;38032;53.326;6.472;2024-03-29T09:28:32;2.08;;;1.10;;
52015;SDS011;38032;53.326;6.472;2024-03-29T09:31:01;1.88;;;1.10;;
52015;SDS011;38032;53.326;6.472;2024-03-29T09:33:28;2.33;;;1.30;;
52015;SDS011;38032;53.326;6.472;2024-03-29T09:35:54;1.65;;;1.10;;
52015;SDS011;38032;53.326;6.472;2024-03-29T09:38:21;2.17;;;1.30;;
52015;SDS011;38032;53.326;6.472;2024-03-29T09:40:49;2.03;;;1.20;;
52015;SDS011;38032;53.326;6.472;2024-03-29T09:43:23;2.70;;;1.17;;
52015;SDS011;38032;53.326;6.472;2024-03-29T09:45:51;1.83;;;1.27;;
52015;SDS011;38032;53.326;6.472;2024-03-29T09:48:19;2.42;;;1.15;;
52015;SDS011;38032;53.326;6.472;2024-03-29T09:50:47;2.97;;;1.20;;
52015;SDS011;38032;53.326;6.472;2024-03-29T09:53:13;2.83;;;1.20;;
52015;SDS011;38032;53.326;6.472;2024-03-29T09:55:40;1.73;;;1.10;;
52015;SDS011;38032;53.326;6.472;2024-03-29T09:58:06;3.00;;;1.20;;
52015;SDS011;38032;53.326;6.472;2024-03-29T10:00:32;2.15;;;1.20;;
52015;SDS011;38032;53.326;6.472;2024-03-29T10:02:58;2.28;;;1.20;;
52015;SDS011;38032;53.326;6.472;2024-03-29T10:05:26;1.90;;;1.10;;
52015;SDS011;38032;53.326;6.472;2024-03-29T10:07:54;1.90;;;1.13;;
52015;SDS011;38032;53.326;6.472;2024-03-29T10:10:20;2.20;;;1.17;;
52015;SDS011;38032;53.326;6.472;2024-03-29T10:12:46;2.15;;;1.10;;
52015;SDS011;38032;53.326;6.472;2024-03-29T10:15:12;3.38;;;1.30;;
52015;SDS011;38032;53.326;6.472;2024-03-29T10:17:46;1.65;;;1.10;;
52015;SDS011;38032;53.326;6.472;2024-03-29T10:20:15;1.60;;;1.20;;
52015;SDS011;38032;53.326;6.472;2024-03-29T10:22:43;1.63;;;1.15;;
52015;SDS011;38032;53.326;6.472;2024-03-29T10:25:11;2.42;;;1.30;;
52015;SDS011;38032;53.326;6.472;2024-03-29T10:27:38;1.95;;;1.25;;
52015;SDS011;38032;53.326;6.472;2024-03-29T10:30:05;1.77;;;1.10;;
52015;SDS011;38032;53.326;6.472;2024-03-29T10:32:34;2.05;;;1.25;;
52015;SDS011;38032;53.326;6.472;2024-03-29T10:35:02;2.95;;;1.25;;
52015;SDS011;38032;53.326;6.472;2024-03-29T10:37:29;4.57;;;1.23;;
52015;SDS011;38032;53.326;6.472;2024-03-29T10:39:57;1.40;;;1.00;;
52015;SDS011;38032;53.326;6.472;2024-03-29T10:42:23;1.90;;;1.10;;
52015;SDS011;38032;53.326;6.472;2024-03-29T10:44:51;1.58;;;1.20;;
52015;SDS011;38032;53.326;6.472;2024-03-29T10:47:20;3.00;;;1.20;;
52015;SDS011;38032;53.326;6.472;2024-03-29T10:49:48;1.42;;;0.95;;
52015;SDS011;38032;53.326;6.472;2024-03-29T10:52:16;1.92;;;1.10;;
52015;SDS011;38032;53.326;6.472;2024-03-29T10:54:44;1.15;;;1.00;;
52015;SDS011;38032;53.326;6.472;2024-03-29T10:57:12;1.13;;;0.90;;
52015;SDS011;38032;53.326;6.472;2024-03-29T10:59:49;2.10;;;0.90;;
52015;SDS011;38032;53.326;6.472;2024-03-29T11:02:33;2.53;;;1.00;;
52015;SDS011;38032;53.326;6.472;2024-03-29T11:05:04;2.53;;;1.08;;
52015;SDS011;38032;53.326;6.472;2024-03-29T11:07:34;1.45;;;1.00;;
52015;SDS011;38032;53.326;6.472;2024-03-29T11:10:04;1.80;;;1.15;;
52015;SDS011;38032;53.326;6.472;2024-03-29T11:12:35;1.02;;;0.80;;
52015;SDS011;38032;53.326;6.472;2024-03-29T11:15:08;2.20;;;0.90;;
52015;SDS011;38032;53.326;6.472;2024-03-29T11:17:41;2.47;;;1.20;;
52015;SDS011;38032;53.326;6.472;2024-03-29T11:20:08;2.42;;;1.20;;
52015;SDS011;38032;53.326;6.472;2024-03-29T11:22:36;2.33;;;1.10;;
52015;SDS011;38032;53.326;6.472;2024-03-29T11:25:02;1.65;;;1.00;;
52015;SDS011;38032;53.326;6.472;2024-03-29T11:27:29;1.52;;;1.10;;
52015;SDS011;38032;53.326;6.472;2024-03-29T11:29:55;1.85;;;1.00;;
52015;SDS011;38032;53.326;6.472;2024-03-29T11:32:34;1.73;;;1.00;;
52015;SDS011;38032;53.326;6.472;2024-03-29T11:35:02;2.50;;;1.10;;
52015;SDS011;38032;53.326;6.472;2024-03-29T11:37:29;2.22;;;1.10;;
52015;SDS011;38032;53.326;6.472;2024-03-29T11:39:58;1.63;;;1.00;;
52015;SDS011;38032;53.326;6.472;2024-03-29T11:42:35;2.70;;;1.17;;
52015;SDS011;38032;53.326;6.472;2024-03-29T11:45:12;1.60;;;1.05;;
52015;SDS011;38032;53.326;6.472;2024-03-29T11:47:39;3.38;;;1.20;;
52015;SDS011;38032;53.326;6.472;2024-03-29T11:50:07;2.05;;;1.10;;
52015;SDS011;38032;53.326;6.472;2024-03-29T11:52:33;2.17;;;1.10;;
52015;SDS011;38032;53.326;6.472;2024-03-29T11:55:00;2.03;;;1.15;;
52015;SDS011;38032;53.326;6.472;2024-03-29T11:57:25;1.95;;;1.10;;
52015;SDS011;38032;53.326;6.472;2024-03-29T11:59:51;1.58;;;1.08;;
52015;SDS011;38032;53.326;6.472;2024-03-29T12:02:17;1.65;;;1.10;;
52015;SDS011;38032;53.326;6.472;2024-03-29T12:04:43;3.00;;;1.15;;
52015;SDS011;38032;53.326;6.472;2024-03-29T12:07:10;3.20;;;1.20;;
52015;SDS011;38032;53.326;6.472;2024-03-29T12:09:36;1.33;;;0.90;;
52015;SDS011;38032;53.326;6.472;2024-03-29T12:12:05;3.15;;;1.10;;
52015;SDS011;38032;53.326;6.472;2024-03-29T12:14:35;2.60;;;1.30;;
52015;SDS011;38032;53.326;6.472;2024-03-29T12:17:11;1.88;;;1.20;;
52015;SDS011;38032;53.326;6.472;2024-03-29T12:19:37;1.88;;;1.00;;
52015;SDS011;38032;53.326;6.472;2024-03-29T12:22:07;3.50;;;1.30;;
52015;SDS011;38032;53.326;6.472;2024-03-29T12:24:34;2.60;;;1.10;;
52015;SDS011;38032;53.326;6.472;2024-03-29T12:27:00;1.85;;;1.10;;
52015;SDS011;38032;53.326;6.472;2024-03-29T12:29:27;3.50;;;1.20;;
52015;SDS011;38032;53.326;6.472;2024-03-29T12:32:05;1.38;;;1.10;;
52015;SDS011;38032;53.326;6.472;2024-03-29T12:34:31;3.45;;;1.30;;
52015;SDS011;38032;53.326;6.472;2024-03-29T12:36:57;1.60;;;1.10;;
52015;SDS011;38032;53.326;6.472;2024-03-29T12:39:24;2.35;;;1.30;;
52015;SDS011;38032;53.326;6.472;2024-03-29T12:41:51;1.95;;;1.10;;
52015;SDS011;38032;53.326;6.472;2024-03-29T12:44:21;2.17;;;1.30;;
52015;SDS011;38032;53.326;6.472;2024-03-29T12:46:47;1.83;;;1.10;;
52015;SDS011;38032;53.326;6.472;2024-03-29T12:49:13;3.38;;;1.40;;
52015;SDS011;38032;53.326;6.472;2024-03-29T12:51:40;2.80;;;1.20;;
52015;SDS011;38032;53.326;6.472;2024-03-29T12:54:06;3.30;;;1.20;;
52015;SDS011;38032;53.326;6.472;2024-03-29T12:56:32;4.53;;;1.40;;
52015;SDS011;38032;53.326;6.472;2024-03-29T12:58:58;4.55;;;1.33;;
52015;SDS011;38032;53.326;6.472;2024-03-29T13:01:24;2.15;;;1.10;;
52015;SDS011;38032;53.326;6.472;2024-03-29T13:03:50;2.00;;;1.20;;
52015;SDS011;38032;53.326;6.472;2024-03-29T13:06:16;2.92;;;1.40;;
52015;SDS011;38032;53.326;6.472;2024-03-29T13:08:42;3.28;;;1.20;;
52015;SDS011;38032;53.326;6.472;2024-03-29T13:11:09;3.28;;;1.20;;
52015;SDS011;38032;53.326;6.472;2024-03-29T13:13:36;3.60;;;1.40;;
52015;SDS011;38032;53.326;6.472;2024-03-29T13:16:02;1.85;;;1.13;;
52015;SDS011;38032;53.326;6.472;2024-03-29T13:18:28;2.72;;;1.27;;
52015;SDS011;38032;53.326;6.472;2024-03-29T13:20:53;2.88;;;1.40;;
52015;SDS011;38032;53.326;6.472;2024-03-29T13:23:21;2.47;;;1.25;;
52015;SDS011;38032;53.326;6.472;2024-03-29T13:25:48;1.90;;;1.17;;
52015;SDS011;38032;53.326;6.472;2024-03-29T13:28:14;1.90;;;1.10;;
52015;SDS011;38032;53.326;6.472;2024-03-29T13:30:39;3.10;;;1.40;;
52015;SDS011;38032;53.326;6.472;2024-03-29T13:33:09;2.20;;;1.23;;
52015;SDS011;38032;53.326;6.472;2024-03-29T13:35:37;4.43;;;1.25;;
52015;SDS011;38032;53.326;6.472;2024-03-29T13:38:03;2.05;;;1.20;;
52015;SDS011;38032;53.326;6.472;2024-03-29T13:40:29;2.83;;;1.40;;
52015;SDS011;38032;53.326;6.472;2024-03-29T13:42:57;2.35;;;1.10;;
52015;SDS011;38032;53.326;6.472;2024-03-29T13:45:23;2.10;;;1.10;;
52015;SDS011;38032;53.326;6.472;2024-03-29T13:47:51;2.50;;;1.15;;
52015;SDS011;38032;53.326;6.472;2024-03-29T13:50:17;2.60;;;1.13;;
52015;SDS011;38032;53.326;6.472;2024-03-29T13:52:43;1.88;;;1.13;;
52015;SDS011;38032;53.326;6.472;2024-03-29T13:55:09;2.28;;;1.20;;
52015;SDS011;38032;53.326;6.472;2024-03-29T13:57:35;2.92;;;1.20;;
52015;SDS011;38032;53.326;6.472;2024-03-29T14:00:02;3.15;;;1.20;;
52015;SDS011;38032;53.326;6.472;2024-03-29T14:02:29;3.10;;;1.20;;
52015;SDS011;38032;53.326;6.472;2024-03-29T14:04:56;4.13;;;1.35;;
52015;SDS011;38032;53.326;6.472;2024-03-29T14:07:23;2.22;;;1.30;;
52015;SDS011;38032;53.326;6.472;2024-03-29T14:09:51;4.18;;;1.40;;
52015;SDS011;38032;53.326;6.472;2024-03-29T14:12:17;2.90;;;1.30;;
52015;SDS011;38032;53.326;6.472;2024-03-29T14:14:46;2.35;;;1.20;;
52015;SDS011;38032;53.326;6.472;2024-03-29T14:17:15;1.92;;;1.40;;
52015;SDS011;38032;53.326;6.472;2024-03-29T14:19:42;3.85;;;1.30;;
52015;SDS011;38032;53.326;6.472;2024-03-29T14:22:07;2.00;;;1.10;;
52015;SDS011;38032;53.326;6.472;2024-03-29T14:24:34;3.08;;;1.25;;
52015;SDS011;38032;53.326;6.472;2024-03-29T14:27:02;2.17;;;1.30;;
52015;SDS011;38032;53.326;6.472;2024-03-29T14:29:30;2.53;;;1.20;;
52015;SDS011;38032;53.326;6.472;2024-03-29T14:31:57;2.70;;;1.10;;
52015;SDS011;38032;53.326;6.472;2024-03-29T14:34:23;2.30;;;1.30;;
52015;SDS011;38032;53.326;6.472;2024-03-29T14:36:50;1.77;;;1.20;;
52015;SDS011;38032;53.326;6.472;2024-03-29T14:39:16;2.85;;;1.30;;
52015;SDS011;38032;53.326;6.472;2024-03-29T14:41:44;2.33;;;1.30;;
52015;SDS011;38032;53.326;6.472;2024-03-29T14:44:11;1.67;;;1.17;;
52015;SDS011;38032;53.326;6.472;2024-03-29T14:46:38;3.13;;;1.35;;